createdAt,value
2022-12-25T00:02:06.258Z,19.00
2022-12-25T00:07:00.535Z,19.06
2022-12-25T00:11:53.938Z,19.05
2022-12-25T00:16:47.627Z,19.04
2022-12-25T00:21:40.847Z,19.03
2022-12-25T00:26:34.250Z,18.95
2022-12-25T00:31:28.443Z,18.92
2022-12-25T00:36:23.086Z,18.96
2022-12-25T00:41:43.137Z,18.98
2022-12-25T00:46:37.993Z,18.95
2022-12-25T00:51:31.754Z,18.82
2022-12-25T00:56:24.717Z,18.92
2022-12-25T01:01:18.735Z,18.80
2022-12-25T01:06:13.790Z,18.90
2022-12-25T01:11:09.429Z,18.88
2022-12-25T01:16:12.419Z,18.68
2022-12-25T01:21:11.864Z,18.88
2022-12-25T01:26:10.174Z,18.88
2022-12-25T01:31:04.596Z,18.92
2022-12-25T01:35:59.056Z,18.79
2022-12-25T01:40:51.696Z,18.87
2022-12-25T01:45:47.693Z,18.88
2022-12-25T01:50:43.672Z,18.74
2022-12-25T01:55:38.417Z,18.63
2022-12-25T02:00:32.396Z,18.74
2022-12-25T02:05:32.580Z,18.72
2022-12-25T02:10:25.934Z,18.67
2022-12-25T02:15:23.094Z,18.74
2022-12-25T02:20:40.503Z,18.62
2022-12-25T02:25:33.590Z,18.72
2022-12-25T02:30:27.457Z,18.73
2022-12-25T02:35:31.645Z,18.63
2022-12-25T02:40:47.113Z,18.68
2022-12-25T02:46:12.081Z,18.68
2022-12-25T02:51:28.309Z,18.53
2022-12-25T02:56:41.221Z,18.52
2022-12-25T03:01:55.263Z,18.59
2022-12-25T03:07:11.652Z,18.60
2022-12-25T03:12:17.013Z,18.56
2022-12-25T03:17:10.686Z,18.56
2022-12-25T03:22:24.265Z,18.46
2022-12-25T03:27:17.732Z,18.54
2022-12-25T03:32:17.932Z,18.40
2022-12-25T03:37:29.686Z,18.51
2022-12-25T03:42:35.749Z,18.45
2022-12-25T03:47:52.137Z,18.41
2022-12-25T03:53:06.402Z,18.47
2022-12-25T03:58:18.360Z,18.44
2022-12-25T04:03:30.133Z,18.45
2022-12-25T04:08:41.913Z,18.42
2022-12-25T04:13:53.285Z,18.29
2022-12-25T04:19:05.669Z,18.38
2022-12-25T04:24:17.675Z,18.37
2022-12-25T04:29:29.575Z,18.39
2022-12-25T04:34:41.519Z,18.16
2022-12-25T04:39:35.214Z,18.31
2022-12-25T04:44:28.266Z,18.33
2022-12-25T04:49:22.637Z,18.35
2022-12-25T04:54:16.582Z,18.22
2022-12-25T04:59:09.642Z,18.29
2022-12-25T05:04:03.276Z,18.28
2022-12-25T05:08:56.776Z,18.28
2022-12-25T05:13:49.797Z,18.29
2022-12-25T05:18:43.111Z,18.15
2022-12-25T05:23:37.549Z,18.27
2022-12-25T05:28:31.848Z,18.19
2022-12-25T05:33:25.610Z,18.21
2022-12-25T05:38:19.282Z,18.27
2022-12-25T05:43:12.585Z,18.20
2022-12-25T05:48:07.084Z,18.30
2022-12-25T05:53:06.095Z,18.18
2022-12-25T05:58:02.006Z,18.25
2022-12-25T06:02:55.927Z,18.24
2022-12-25T06:07:49.865Z,18.33
2022-12-25T06:12:43.436Z,18.31
2022-12-25T06:17:37.079Z,18.31
2022-12-25T06:22:34.312Z,18.34
2022-12-25T06:27:28.873Z,18.35
2022-12-25T06:32:22.701Z,18.34
2022-12-25T06:37:16.524Z,18.26
2022-12-25T06:42:10.664Z,18.29
2022-12-25T06:47:04.030Z,18.25
2022-12-25T06:51:58.323Z,18.41
2022-12-25T06:56:52.197Z,18.33
2022-12-25T07:01:54.890Z,18.43
2022-12-25T07:06:48.114Z,18.44
2022-12-25T07:11:41.571Z,18.33
2022-12-25T07:16:34.980Z,18.44
2022-12-25T07:21:28.739Z,18.41
2022-12-25T07:26:22.073Z,18.19
2022-12-25T07:31:17.867Z,18.37
2022-12-25T07:36:13.047Z,18.28
2022-12-25T07:41:09.440Z,18.39
2022-12-25T07:46:03.065Z,18.30
2022-12-25T07:51:00.494Z,18.23
2022-12-25T07:56:07.815Z,18.29
2022-12-25T08:01:13.645Z,18.27
2022-12-25T08:06:09.334Z,18.31
2022-12-25T08:11:03.716Z,18.29
2022-12-25T08:16:02.454Z,18.12
2022-12-25T08:20:56.345Z,18.26
2022-12-25T08:25:49.803Z,18.39
2022-12-25T08:30:43.771Z,18.30
2022-12-25T08:35:37.223Z,18.31
2022-12-25T08:40:30.190Z,18.27
2022-12-25T08:45:22.910Z,18.41
2022-12-25T08:50:17.009Z,18.42
2022-12-25T08:55:11.276Z,18.29
2022-12-25T09:00:05.726Z,18.30
2022-12-25T09:04:59.059Z,18.38
2022-12-25T09:09:52.291Z,18.32
2022-12-25T09:14:45.751Z,18.43
2022-12-25T09:19:38.782Z,18.29
2022-12-25T09:24:32.462Z,18.42
2022-12-25T09:29:25.647Z,18.42
2022-12-25T09:34:19.298Z,18.47
2022-12-25T09:39:13.161Z,18.44
2022-12-25T09:44:19.525Z,18.49
2022-12-25T09:49:40.112Z,18.46
2022-12-25T09:54:47.402Z,18.46
2022-12-25T09:59:43.141Z,18.47
2022-12-25T10:05:21.630Z,18.53
2022-12-25T10:10:35.785Z,18.54
2022-12-25T10:15:35.794Z,18.51
2022-12-25T10:20:46.955Z,18.51
2022-12-25T10:25:41.205Z,18.53
2022-12-25T10:30:35.756Z,18.71
2022-12-25T10:35:31.292Z,18.71
2022-12-25T10:40:23.792Z,18.75
2022-12-25T10:45:17.926Z,18.89
2022-12-25T10:50:19.058Z,18.91
2022-12-25T10:55:14.037Z,18.89
2022-12-25T11:00:24.664Z,18.84
2022-12-25T11:05:36.203Z,18.84
2022-12-25T11:10:39.728Z,18.93
2022-12-25T11:15:42.311Z,18.90
2022-12-25T11:20:40.027Z,18.94
2022-12-25T11:25:35.970Z,18.84
2022-12-25T11:30:34.704Z,18.98
2022-12-25T11:35:32.258Z,18.97
2022-12-25T11:40:29.680Z,18.75
2022-12-25T11:45:36.678Z,18.93
2022-12-25T11:50:35.158Z,18.72
2022-12-25T11:55:33.675Z,18.90
2022-12-25T12:00:29.980Z,18.78
2022-12-25T12:05:37.242Z,18.84
2022-12-25T12:10:48.253Z,18.87
2022-12-25T12:15:41.456Z,18.85
2022-12-25T12:20:36.499Z,18.79
2022-12-25T12:25:31.019Z,18.81
2022-12-25T12:30:31.383Z,18.83
2022-12-25T12:35:31.158Z,18.92
2022-12-25T12:40:34.479Z,18.93
2022-12-25T12:45:54.077Z,18.93
2022-12-25T12:50:48.555Z,18.90
2022-12-25T12:55:42.482Z,18.90
2022-12-25T13:01:13.539Z,18.91
2022-12-25T13:06:17.901Z,18.92
2022-12-25T13:11:21.818Z,18.80
2022-12-25T13:16:25.181Z,18.96
2022-12-25T13:21:23.276Z,18.92
2022-12-25T13:26:17.414Z,18.88
2022-12-25T13:31:32.309Z,19.00
2022-12-25T13:36:27.562Z,18.72
2022-12-25T13:41:41.221Z,18.75
2022-12-25T13:46:35.088Z,18.78
2022-12-25T13:51:28.697Z,18.97
2022-12-25T13:56:22.952Z,18.83
2022-12-25T14:01:17.189Z,18.99
2022-12-25T14:06:24.175Z,18.95
2022-12-25T14:11:21.043Z,18.93
2022-12-25T14:16:18.023Z,18.77
2022-12-25T14:21:23.940Z,18.99
2022-12-25T14:26:32.395Z,18.94
2022-12-25T14:31:25.481Z,19.02
2022-12-25T14:36:19.480Z,18.88
2022-12-25T14:41:42.534Z,19.01
2022-12-25T14:46:35.784Z,19.01
2022-12-25T14:51:30.570Z,18.81
2022-12-25T14:56:25.181Z,18.97
2022-12-25T15:01:42.211Z,19.01
2022-12-25T15:06:36.124Z,19.02
2022-12-25T15:11:30.991Z,19.00
2022-12-25T15:16:27.008Z,19.03
2022-12-25T15:21:26.594Z,19.03
2022-12-25T15:26:20.021Z,18.95
2022-12-25T15:31:27.900Z,19.03
2022-12-25T15:36:21.420Z,19.05
2022-12-25T15:41:37.513Z,19.05
2022-12-25T15:46:31.154Z,19.06
2022-12-25T15:51:23.790Z,19.05
2022-12-25T15:56:16.875Z,18.95
2022-12-25T16:01:18.075Z,18.91
2022-12-25T16:06:12.524Z,19.06
2022-12-25T16:11:06.470Z,19.07
2022-12-25T16:16:00.556Z,19.07
2022-12-25T16:20:55.051Z,19.00
2022-12-25T16:25:48.606Z,19.08
2022-12-25T16:30:42.749Z,19.07
2022-12-25T16:35:35.481Z,19.00
2022-12-25T16:40:29.476Z,19.05
2022-12-25T16:45:23.341Z,18.86
2022-12-25T16:50:17.426Z,19.06
2022-12-25T16:55:10.332Z,19.07
2022-12-25T17:00:03.653Z,19.03
2022-12-25T17:04:57.428Z,19.11
2022-12-25T17:09:51.100Z,19.06
2022-12-25T17:14:44.604Z,19.08
2022-12-25T17:19:39.954Z,19.00
2022-12-25T17:24:35.771Z,19.06
2022-12-25T17:29:30.790Z,19.07
2022-12-25T17:34:24.170Z,19.08
2022-12-25T17:39:17.948Z,19.09
2022-12-25T17:44:11.534Z,19.00
2022-12-25T17:49:06.484Z,19.02
2022-12-25T17:54:03.305Z,19.02
2022-12-25T17:58:59.233Z,18.89
2022-12-25T18:03:52.258Z,18.91
2022-12-25T18:08:46.237Z,18.97
2022-12-25T18:13:41.064Z,18.99
2022-12-25T18:18:36.242Z,18.93
2022-12-25T18:23:29.203Z,18.92
2022-12-25T18:28:22.359Z,18.84
2022-12-25T18:33:16.489Z,18.86
2022-12-25T18:38:10.258Z,18.75
2022-12-25T18:43:03.883Z,18.93
2022-12-25T18:47:57.390Z,18.86
2022-12-25T18:52:52.431Z,18.85
2022-12-25T18:57:45.884Z,18.85
2022-12-25T19:02:39.674Z,18.85
2022-12-25T19:07:33.873Z,18.82
2022-12-25T19:12:27.538Z,18.82
2022-12-25T19:17:20.613Z,18.70
2022-12-25T19:22:14.477Z,18.77
2022-12-25T19:27:08.232Z,18.75
2022-12-25T19:32:02.000Z,18.69
2022-12-25T19:36:56.822Z,18.69
2022-12-25T19:41:50.379Z,18.78
2022-12-25T19:46:43.279Z,18.78
2022-12-25T19:51:40.100Z,18.99
2022-12-25T19:56:34.091Z,19.10
2022-12-25T20:01:29.785Z,19.01
2022-12-25T20:06:26.807Z,18.96
2022-12-25T20:11:20.188Z,19.17
2022-12-25T20:16:13.820Z,19.17
2022-12-25T20:21:11.317Z,18.91
2022-12-25T20:26:06.069Z,18.83
2022-12-25T20:31:00.115Z,18.84
2022-12-25T20:35:55.398Z,18.91
2022-12-25T20:41:25.269Z,18.96
2022-12-25T20:46:02.661Z,19.05
2022-12-25T20:51:12.281Z,19.07
2022-12-25T20:56:07.727Z,19.00
2022-12-25T21:01:05.068Z,18.96
2022-12-25T21:05:58.427Z,18.98
2022-12-25T21:10:53.457Z,18.96
2022-12-25T21:15:50.666Z,18.84
2022-12-25T21:20:50.953Z,18.91
2022-12-25T21:25:46.891Z,18.89
2022-12-25T21:30:40.289Z,18.75
2022-12-25T21:35:37.858Z,18.78
2022-12-25T21:40:31.784Z,18.66
2022-12-25T21:45:25.832Z,18.71
2022-12-25T21:50:39.420Z,18.81
2022-12-25T21:55:35.409Z,18.61
2022-12-25T22:00:29.249Z,18.72
2022-12-25T22:05:40.212Z,18.69
2022-12-25T22:10:36.537Z,18.68
2022-12-25T22:15:47.991Z,18.55
2022-12-25T22:20:42.488Z,18.78
2022-12-25T22:25:36.285Z,18.74
2022-12-25T22:30:29.590Z,18.55
2022-12-25T22:35:23.532Z,18.56
2022-12-25T22:40:18.314Z,18.66
2022-12-25T22:45:13.735Z,18.68
2022-12-25T22:50:08.593Z,18.71
2022-12-25T22:55:03.063Z,18.73
2022-12-25T22:59:56.420Z,18.71
2022-12-25T23:04:51.058Z,18.78
2022-12-25T23:09:44.954Z,18.77
2022-12-25T23:14:42.112Z,18.81
2022-12-25T23:19:53.655Z,18.85
2022-12-25T23:25:05.965Z,18.84
2022-12-25T23:30:00.239Z,18.89
2022-12-25T23:34:54.643Z,18.77
2022-12-25T23:39:48.252Z,18.78
2022-12-25T23:44:40.490Z,18.80
2022-12-25T23:49:34.295Z,18.92
2022-12-25T23:54:29.570Z,18.84
2022-12-25T23:59:23.905Z,18.97
